Time;durP1;ratioP1;P1;durP2;ratioP2;P2;SDS_P1;SDS_P2;PMS_P1;PMS_P2;Temp;Humidity;BMP_temperature;BMP_pressure;BME280_temperature;BME280_humidity;BME280_pressure;Samples;Min_cycle;Max_cycle;Signal;HPM_P1;HPM_P2
2023/09/03 00:00:12;;;;;;;;;;;;;;;;;;5094238;28;4919;-64
2023/09/03 00:02:38;;;;;;;;;;;;;;;;;;5090654;28;5074;-61
2023/09/03 00:05:03;;;;;;;;;;;;;;;;;;5092977;28;1901;-62
2023/09/03 00:07:29;;;;;;;;;;;;;;;;;;5096502;28;4996;-67
2023/09/03 00:09:54;;;;;;;;;;;;;;;;;;5099376;28;5255;-66
2023/09/03 00:12:19;;;;;;;;;;;;;;;;;;5095039;28;5081;-64
2023/09/03 00:14:44;;;;;;;;;;;;;;;;;;5090919;28;4956;-62
2023/09/03 00:17:14;;;;;;;;;;;;;;;;;;5095826;28;5277;-62
2023/09/03 00:19:39;;;;;;;;;;;;;;;;;;5088313;28;1490;-71
2023/09/03 00:22:04;;;;;;;;;;;;;;;;;;5091792;28;4610;-65
2023/09/03 00:24:31;;;;;;;;;;;;;;;;;;5092277;28;4397;-65
2023/09/03 00:26:57;;;;;;;;;;;;;;;;;;5095476;28;5241;-62
2023/09/03 00:29:22;;;;;;;;;;;;;;;;;;5091956;28;5139;-62
2023/09/03 00:31:47;;;;;;;;;;;;;;;;;;5095118;28;5035;-61
2023/09/03 00:34:13;;;;;;;;;;;;;;;;;;5090915;28;5951;-62
2023/09/03 00:36:40;;;;;;;;;;;;;;;;;;5098375;28;5720;-62
2023/09/03 00:39:05;;;;;;;;;;;;;;;;;;5097599;28;4842;-62
2023/09/03 00:41:30;;;;;;;;;;;;;;;;;;5099671;28;4982;-62
2023/09/03 00:43:55;;;;;;;;;;;;;;;;;;5096103;28;1914;-65
2023/09/03 00:46:21;;;;;;;;;;;;;;;;;;5095879;28;5064;-64
2023/09/03 00:48:46;;;;;;;;;;;;;;;;;;5092038;28;5319;-63
2023/09/03 00:51:12;;;;;;;;;;;;;;;;;;5081876;28;5037;-68
2023/09/03 00:53:37;;;;;;;;;;;;;;;;;;5088596;28;4854;-66
2023/09/03 00:56:02;;;;;;;;;;;;;;;;;;5112538;27;3288;-66
2023/09/03 00:58:28;;;;;;;;;;;;;;;;;;5086810;28;5095;-62
2023/09/03 01:00:53;;;;;;;;;;;;;;;;;;5095483;28;5102;-64
2023/09/03 01:03:18;;;;;;;;;;;;;;;;;;5088338;28;5647;-62
2023/09/03 01:05:44;;;;;;;;;;;;;;;;;;5093508;28;5001;-66
2023/09/03 01:08:09;;;;;;;;;;;;;;;;;;5096868;28;1257;-72
2023/09/03 01:10:34;;;;;;;;;;;;;;;;;;5095110;28;5000;-63
2023/09/03 01:13:02;;;;;;;;;;;;;;;;;;5099204;28;4926;-61
2023/09/03 01:15:32;;;;;;;;;;;;;;;;;;5073120;28;4865;-64
2023/09/03 01:18:00;;;;;;;;;;;;;;;;;;5106429;27;5559;-64
2023/09/03 01:20:26;;;;;;;;;;;;;;;;;;5093127;28;4830;-64
2023/09/03 01:23:04;;;;;;;;;;;;;;;;;;5089140;28;2357;-63
2023/09/03 01:25:48;;;;;;;;;;;;;;;;;;5083359;28;5007;-65
2023/09/03 01:28:21;;;;;;;;;;;;;;;;;;5099518;28;5046;-67
2023/09/03 01:30:46;;;;;;;;;;;;;;;;;;5086906;28;5072;-65
2023/09/03 01:33:11;;;;;;;;;;;;;;;;;;5078754;28;5677;-62
2023/09/03 01:35:37;;;;;;;;;;;;;;;;;;5078176;28;4943;-62
2023/09/03 01:38:02;;;;;;;;;;;;;;;;;;5102606;28;1255;-65
2023/09/03 01:40:27;;;;;;;;;;;;;;;;;;5089730;28;4970;-62
2023/09/03 01:42:53;;;;;;;;;;;;;;;;;;5098471;28;5043;-67
2023/09/03 01:45:18;;;;;;;;;;;;;;;;;;5096302;28;5078;-66
2023/09/03 01:47:51;;;;;;;;;;;;;;;;;;5067637;28;5928;-65
2023/09/03 01:50:39;;;;;;;;;;;;;;;;;;5109671;28;4959;-64
2023/09/03 01:53:09;;;;;;;;;;;;;;;;;;5104959;28;3213;-61
2023/09/03 01:55:36;;;;;;;;;;;;;;;;;;5078197;28;4918;-64
2023/09/03 01:58:02;;;;;;;;;;;;;;;;;;5091067;28;5143;-61
2023/09/03 02:00:28;;;;;;;;;;;;;;;;;;5099901;28;4982;-61
2023/09/03 02:02:53;;;;;;;;;;;;;;;;;;5088032;28;5249;-64
2023/09/03 02:05:19;;;;;;;;;;;;;;;;;;5094286;28;5138;-64
2023/09/03 02:07:45;;;;;;;;;;;;;;;;;;5091344;28;1265;-62
2023/09/03 02:10:10;;;;;;;;;;;;;;;;;;5092015;28;5083;-61
2023/09/03 02:12:35;;;;;;;;;;;;;;;;;;5075777;28;4934;-61
2023/09/03 02:15:01;;;;;;;;;;;;;;;;;;5090362;28;4930;-61
2023/09/03 02:17:26;;;;;;;;;;;;;;;;;;5085039;28;5026;-61
2023/09/03 02:19:52;;;;;;;;;;;;;;;;;;5097228;28;3401;-62
2023/09/03 02:22:18;;;;;;;;;;;;;;;;;;5101965;28;4899;-64
2023/09/03 02:24:43;;;;;;;;;;;;;;;;;;5077974;28;5076;-61
2023/09/03 02:27:09;;;;;;;;;;;;;;;;;;5091344;28;4846;-63
2023/09/03 02:29:34;;;;;;;;;;;;;;;;;;5101957;28;5031;-64
2023/09/03 02:31:59;;;;;;;;;;;;;;;;;;5101283;28;4909;-62
2023/09/03 02:34:24;;;;;;;;;;;;;;;;;;5097460;28;4640;-62
2023/09/03 02:36:50;;;;;;;;;;;;;;;;;;5098002;28;4890;-62
2023/09/03 02:39:15;;;;;;;;;;;;;;;;;;5096396;28;4599;-62
2023/09/03 02:41:40;;;;;;;;;;;;;;;;;;5103106;28;5026;-61
2023/09/03 02:44:07;;;;;;;;;;;;;;;;;;5100533;28;2008;-63
2023/09/03 02:46:32;;;;;;;;;;;;;;;;;;5109993;28;4831;-65
2023/09/03 02:48:57;;;;;;;;;;;;;;;;;;5101241;28;5447;-61
2023/09/03 02:51:22;;;;;;;;;;;;;;;;;;5104215;28;5068;-62
2023/09/03 02:53:48;;;;;;;;;;;;;;;;;;5092425;28;5151;-65
2023/09/03 02:56:14;;;;;;;;;;;;;;;;;;5122244;27;5340;-62
2023/09/03 02:58:39;;;;;;;;;;;;;;;;;;5105091;28;1122;-67
2023/09/03 03:01:05;;;;;;;;;;;;;;;;;;5100823;28;5004;-64
2023/09/03 03:03:31;;;;;;;;;;;;;;;;;;5087763;28;5041;-61
2023/09/03 03:05:56;;;;;;;;;;;;;;;;;;5074135;28;5140;-60
2023/09/03 03:08:21;;;;;;;;;;;;;;;;;;5088489;28;4885;-64
2023/09/03 03:10:46;;;;;;;;;;;;;;;;;;5102727;28;3214;-66
2023/09/03 03:13:12;;;;;;;;;;;;;;;;;;5097137;28;4990;-64
2023/09/03 03:15:37;;;;;;;;;;;;;;;;;;5098192;28;4865;-64
2023/09/03 03:18:02;;;;;;;;;;;;;;;;;;5089480;28;4804;-63
2023/09/03 03:20:28;;;;;;;;;;;;;;;;;;5092720;28;5153;-61
2023/09/03 03:22:53;;;;;;;;;;;;;;;;;;5094764;28;3293;-64
2023/09/03 03:25:18;;;;;;;;;;;;;;;;;;5095705;28;5060;-63
2023/09/03 03:27:43;;;;;;;;;;;;;;;;;;5092272;28;4898;-61
2023/09/03 03:30:08;;;;;;;;;;;;;;;;;;5102592;28;5025;-61
2023/09/03 03:32:34;;;;;;;;;;;;;;;;;;5085418;28;4981;-67
2023/09/03 03:34:59;;;;;;;;;;;;;;;;;;5097864;28;1579;-65
2023/09/03 03:37:24;;;;;;;;;;;;;;;;;;5098675;28;4377;-62
2023/09/03 03:39:50;;;;;;;;;;;;;;;;;;5091843;28;5020;-63
2023/09/03 03:42:15;;;;;;;;;;;;;;;;;;5096597;28;4989;-65
2023/09/03 03:44:41;;;;;;;;;;;;;;;;;;5100454;28;4888;-63
2023/09/03 03:47:06;;;;;;;;;;;;;;;;;;5083206;28;3400;-65
2023/09/03 03:49:31;;;;;;;;;;;;;;;;;;5092661;28;4458;-62
2023/09/03 03:51:57;;;;;;;;;;;;;;;;;;5089190;28;4921;-64
2023/09/03 03:54:22;;;;;;;;;;;;;;;;;;5094367;28;4620;-68
2023/09/03 03:56:47;;;;;;;;;;;;;;;;;;5096419;28;5173;-62
2023/09/03 03:59:12;;;;;;;;;;;;;;;;;;5096547;28;5007;-62
2023/09/03 04:01:38;;;;;;;;;;;;;;;;;;5090905;28;3300;-63
2023/09/03 04:04:03;;;;;;;;;;;;;;;;;;5092069;28;4621;-61
2023/09/03 04:06:30;;;;;;;;;;;;;;;;;;5092289;28;4994;-61
2023/09/03 04:08:55;;;;;;;;;;;;;;;;;;5101451;28;5005;-61
2023/09/03 04:11:23;;;;;;;;;;;;;;;;;;5101234;28;4873;-61
2023/09/03 04:13:48;;;;;;;;;;;;;;;;;;5095337;28;3234;-62
2023/09/03 04:16:14;;;;;;;;;;;;;;;;;;5097080;28;5016;-62
2023/09/03 04:18:39;;;;;;;;;;;;;;;;;;5085751;28;4568;-60
2023/09/03 04:21:04;;;;;;;;;;;;;;;;;;5093380;28;4880;-61
2023/09/03 04:23:30;;;;;;;;;;;;;;;;;;5091521;28;5007;-62
2023/09/03 04:25:56;;;;;;;;;;;;;;;;;;5092021;28;2023;-60
2023/09/03 04:28:22;;;;;;;;;;;;;;;;;;5088993;28;4436;-66
2023/09/03 04:30:51;;;;;;;;;;;;;;;;;;5100116;28;4603;-63
2023/09/03 04:33:16;;;;;;;;;;;;;;;;;;5057556;28;5615;-65
2023/09/03 04:35:42;;;;;;;;;;;;;;;;;;5092140;28;4972;-66
2023/09/03 04:38:07;;;;;;;;;;;;;;;;;;5088947;28;2302;-63
2023/09/03 04:40:34;;;;;;;;;;;;;;;;;;5090938;28;4364;-60
2023/09/03 04:42:59;;;;;;;;;;;;;;;;;;5086027;28;5069;-60
2023/09/03 04:45:24;;;;;;;;;;;;;;;;;;5096241;28;4912;-62
2023/09/03 04:47:50;;;;;;;;;;;;;;;;;;5082522;28;4626;-60
2023/09/03 04:50:15;;;;;;;;;;;;;;;;;;5094247;28;5197;-61
2023/09/03 04:52:43;;;;;;;;;;;;;;;;;;5096396;28;3359;-65
2023/09/03 04:55:09;;;;;;;;;;;;;;;;;;5097726;28;4803;-61
2023/09/03 04:57:34;;;;;;;;;;;;;;;;;;5095108;28;4881;-62
2023/09/03 04:59:59;;;;;;;;;;;;;;;;;;5092819;28;5017;-62
2023/09/03 05:02:25;;;;;;;;;;;;;;;;;;5078456;28;4821;-63
2023/09/03 05:04:50;;;;;;;;;;;;;;;;;;5087257;28;3399;-63
2023/09/03 05:07:15;;;;;;;;;;;;;;;;;;5096785;28;4959;-60
2023/09/03 05:09:40;;;;;;;;;;;;;;;;;;5089339;28;4885;-63
2023/09/03 05:12:06;;;;;;;;;;;;;;;;;;5089531;28;5039;-61
2023/09/03 05:14:31;;;;;;;;;;;;;;;;;;5097262;28;4464;-61
2023/09/03 05:16:56;;;;;;;;;;;;;;;;;;5097825;28;3259;-63
2023/09/03 05:19:22;;;;;;;;;;;;;;;;;;5093009;28;4917;-65
2023/09/03 05:21:47;;;;;;;;;;;;;;;;;;5090802;28;5218;-65
2023/09/03 05:24:12;;;;;;;;;;;;;;;;;;5088691;28;4662;-63
2023/09/03 05:26:37;;;;;;;;;;;;;;;;;;5097941;28;5150;-62
2023/09/03 05:29:03;;;;;;;;;;;;;;;;;;5089689;28;1238;-63
2023/09/03 05:31:30;;;;;;;;;;;;;;;;;;5094323;28;4933;-63
2023/09/03 05:33:55;;;;;;;;;;;;;;;;;;5090223;28;5048;-62
2023/09/03 05:36:21;;;;;;;;;;;;;;;;;;5087676;28;5125;-60
2023/09/03 05:38:46;;;;;;;;;;;;;;;;;;5086122;28;4961;-62
2023/09/03 05:41:11;;;;;;;;;;;;;;;;;;5091024;28;4439;-62
2023/09/03 05:43:37;;;;;;;;;;;;;;;;;;5087130;28;1202;-61
2023/09/03 05:46:03;;;;;;;;;;;;;;;;;;5093857;28;5131;-65
2023/09/03 05:48:28;;;;;;;;;;;;;;;;;;5092191;28;5327;-63
2023/09/03 05:51:03;;;;;;;;;;;;;;;;;;5082625;28;5311;-65
2023/09/03 05:53:29;;;;;;;;;;;;;;;;;;5083734;28;4718;-66
2023/09/03 05:56:02;;;;;;;;;;;;;;;;;;5087838;28;1114;-62
2023/09/03 05:58:28;;;;;;;;;;;;;;;;;;5102783;28;5075;-65
2023/09/03 06:00:53;;;;;;;;;;;;;;;;;;5102975;28;5011;-66
2023/09/03 06:03:18;;;;;;;;;;;;;;;;;;5098321;28;4999;-63
2023/09/03 06:05:43;;;;;;;;;;;;;;;;;;5097488;28;5134;-64
2023/09/03 06:08:09;;;;;;;;;;;;;;;;;;5098405;28;3299;-60
2023/09/03 06:10:34;;;;;;;;;;;;;;;;;;5083503;28;4945;-56
2023/09/03 06:12:59;;;;;;;;;;;;;;;;;;5095750;28;4955;-55
2023/09/03 06:15:25;;;;;;;;;;;;;;;;;;5095321;28;5163;-55
2023/09/03 06:17:53;;;;;;;;;;;;;;;;;;5093318;28;4956;-52
2023/09/03 06:20:18;;;;;;;;;;;;;;;;;;5090255;28;5119;-56
2023/09/03 06:22:43;;;;;;;;;;;;;;;;;;5092335;28;3113;-53
2023/09/03 06:25:08;;;;;;;;;;;;;;;;;;5087247;28;4916;-55
2023/09/03 06:27:34;;;;;;;;;;;;;;;;;;5091386;28;5150;-56
2023/09/03 06:29:59;;;;;;;;;;;;;;;;;;5097438;28;4943;-55
2023/09/03 06:32:24;;;;;;;;;;;;;;;;;;5073803;28;5598;-55
2023/09/03 06:34:49;;;;;;;;;;;;;;;;;;5092252;28;1167;-53
2023/09/03 06:37:15;;;;;;;;;;;;;;;;;;5098051;28;4430;-53
2023/09/03 06:39:41;;;;;;;;;;;;;;;;;;5084062;28;5056;-56
2023/09/03 06:42:07;;;;;;;;;;;;;;;;;;5085794;28;5518;-54
2023/09/03 06:44:33;;;;;;;;;;;;;;;;;;5087185;28;5614;-55
2023/09/03 06:46:58;;;;;;;;;;;;;;;;;;5095617;28;3231;-63
2023/09/03 06:49:23;;;;;;;;;;;;;;;;;;5086971;28;4723;-66
2023/09/03 06:51:50;;;;;;;;;;;;;;;;;;5082080;28;4850;-65
2023/09/03 06:54:15;;;;;;;;;;;;;;;;;;5088970;28;4893;-68
2023/09/03 06:56:40;;;;;;;;;;;;;;;;;;5090979;28;5134;-68
2023/09/03 06:59:06;;;;;;;;;;;;;;;;;;5089174;28;3293;-63
2023/09/03 07:01:31;;;;;;;;;;;;;;;;;;5084454;28;4569;-61
2023/09/03 07:03:57;;;;;;;;;;;;;;;;;;5065692;28;4640;-62
2023/09/03 07:06:22;;;;;;;;;;;;;;;;;;5087067;28;4768;-66
2023/09/03 07:08:50;;;;;;;;;;;;;;;;;;5076640;28;5039;-63
2023/09/03 07:11:15;;;;;;;;;;;;;;;;;;5094638;28;5141;-69
2023/09/03 07:13:41;;;;;;;;;;;;;;;;;;5075511;28;2568;-65
2023/09/03 07:16:06;;;;;;;;;;;;;;;;;;5095518;28;4862;-66
2023/09/03 07:18:31;;;;;;;;;;;;;;;;;;5089513;28;4535;-69
2023/09/03 07:21:08;;;;;;;;;;;;;;;;;;5083231;28;4861;-67
2023/09/03 07:23:33;;;;;;;;;;;;;;;;;;5082245;28;5424;-66
2023/09/03 07:26:03;;;;;;;;;;;;;;;;;;5084601;28;3434;-69
2023/09/03 07:28:28;;;;;;;;;;;;;;;;;;5083938;28;5135;-70
2023/09/03 07:30:54;;;;;;;;;;;;;;;;;;5089064;28;5027;-70
2023/09/03 07:33:19;;;;;;;;;;;;;;;;;;5086487;28;4822;-66
2023/09/03 07:35:44;;;;;;;;;;;;;;;;;;5073619;28;4627;-73
2023/09/03 07:38:09;;;;;;;;;;;;;;;;;;5100677;28;3526;-73
2023/09/03 07:40:38;;;;;;;;;;;;;;;;;;5083603;28;4546;-72
2023/09/03 07:43:04;;;;;;;;;;;;;;;;;;5091567;28;4440;-73
2023/09/03 07:45:29;;;;;;;;;;;;;;;;;;5090796;28;4769;-72
2023/09/03 07:47:54;;;;;;;;;;;;;;;;;;5096191;28;5300;-71
2023/09/03 07:50:19;;;;;;;;;;;;;;;;;;5094751;28;4948;-67
2023/09/03 07:52:45;;;;;;;;;;;;;;;;;;5091057;28;1423;-69
2023/09/03 07:55:10;;;;;;;;;;;;;;;;;;5089326;28;4493;-71
2023/09/03 07:57:35;;;;;;;;;;;;;;;;;;5091842;28;5027;-68
2023/09/03 08:00:00;;;;;;;;;;;;;;;;;;5071827;28;4493;-67
2023/09/03 08:02:26;;;;;;;;;;;;;;;;;;5083309;28;4840;-69
2023/09/03 08:04:51;;;;;;;;;;;;;;;;;;5079334;28;3464;-67
2023/09/03 08:07:16;;;;;;;;;;;;;;;;;;5077654;28;5028;-68
2023/09/03 08:09:41;;;;;;;;;;;;;;;;;;5091416;28;5114;-68
2023/09/03 08:12:07;;;;;;;;;;;;;;;;;;5088341;28;4629;-66
2023/09/03 08:14:32;;;;;;;;;;;;;;;;;;5070509;28;5069;-67
2023/09/03 08:16:57;;;;;;;;;;;;;;;;;;5085236;28;1411;-66
2023/09/03 08:19:23;;;;;;;;;;;;;;;;;;5085396;28;4531;-67
2023/09/03 08:21:48;;;;;;;;;;;;;;;;;;5068338;28;4768;-66
2023/09/03 08:24:14;;;;;;;;;;;;;;;;;;5081342;28;5036;-66
2023/09/03 08:26:39;;;;;;;;;;;;;;;;;;5086248;28;5043;-66
2023/09/03 08:29:05;;;;;;;;;;;;;;;;;;5090609;28;3509;-65
2023/09/03 08:31:30;;;;;;;;;;;;;;;;;;5081512;28;5186;-66
2023/09/03 08:33:56;;;;;;;;;;;;;;;;;;5085102;28;4565;-64
2023/09/03 08:36:22;;;;;;;;;;;;;;;;;;5087447;28;5092;-64
2023/09/03 08:38:47;;;;;;;;;;;;;;;;;;5087317;28;5215;-65
2023/09/03 08:41:12;;;;;;;;;;;;;;;;;;5081773;28;4899;-65
2023/09/03 08:43:38;;;;;;;;;;;;;;;;;;5086906;28;1372;-64
2023/09/03 08:46:06;;;;;;;;;;;;;;;;;;5075828;28;5026;-65
2023/09/03 08:48:31;;;;;;;;;;;;;;;;;;5084831;28;4449;-64
2023/09/03 08:50:57;;;;;;;;;;;;;;;;;;5100903;28;5123;-64
2023/09/03 08:53:22;;;;;;;;;;;;;;;;;;5068081;28;4684;-65
2023/09/03 08:55:47;;;;;;;;;;;;;;;;;;5088215;28;1150;-65
2023/09/03 08:58:13;;;;;;;;;;;;;;;;;;5086040;28;4597;-64
2023/09/03 09:00:38;;;;;;;;;;;;;;;;;;5078373;28;4467;-65
2023/09/03 09:03:05;;;;;;;;;;;;;;;;;;5077745;28;4925;-65
2023/09/03 09:05:30;;;;;;;;;;;;;;;;;;5067979;28;5875;-65
2023/09/03 09:07:55;;;;;;;;;;;;;;;;;;5067851;28;3380;-65
2023/09/03 09:10:21;;;;;;;;;;;;;;;;;;5081833;28;5213;-65
2023/09/03 09:13:01;;;;;;;;;;;;;;;;;;5096665;28;5019;-64
2023/09/03 09:15:26;;;;;;;;;;;;;;;;;;5086393;28;4640;-80
2023/09/03 09:17:51;;;;;;;;;;;;;;;;;;5084402;28;4675;-75
2023/09/03 09:20:17;;;;;;;;;;;;;;;;;;5077862;28;4945;-70
2023/09/03 09:22:43;;;;;;;;;;;;;;;;;;5075888;28;3179;-64
2023/09/03 09:25:10;;;;;;;;;;;;;;;;;;5078431;28;4402;-67
2023/09/03 09:27:35;;;;;;;;;;;;;;;;;;5086608;28;4930;-67
2023/09/03 09:30:08;;;;;;;;;;;;;;;;;;5084804;28;5034;-64
2023/09/03 09:32:33;;;;;;;;;;;;;;;;;;5082245;28;5086;-66
2023/09/03 09:34:58;;;;;;;;;;;;;;;;;;5084457;28;3384;-65
2023/09/03 09:37:23;;;;;;;;;;;;;;;;;;5093702;28;4860;-62
2023/09/03 09:39:49;;;;;;;;;;;;;;;;;;5082251;28;4684;-65
2023/09/03 09:42:18;;;;;;;;;;;;;;;;;;5083318;28;4455;-67
2023/09/03 09:45:03;;;;;;;;;;;;;;;;;;5081436;28;5182;-65
2023/09/03 09:47:29;;;;;;;;;;;;;;;;;;5081366;28;5040;-65
2023/09/03 09:49:54;;;;;;;;;;;;;;;;;;5087923;28;3373;-65
2023/09/03 09:52:19;;;;;;;;;;;;;;;;;;5065510;28;4816;-68
2023/09/03 09:54:45;;;;;;;;;;;;;;;;;;5080390;28;4876;-60
2023/09/03 09:57:13;;;;;;;;;;;;;;;;;;5039828;28;1213837;-60
2023/09/03 09:59:39;;;;;;;;;;;;;;;;;;5076181;28;4874;-63
2023/09/03 10:02:12;;;;;;;;;;;;;;;;;;5079556;28;3460;-60
2023/09/03 10:04:44;;;;;;;;;;;;;;;;;;5081861;28;5024;-63
2023/09/03 10:07:09;;;;;;;;;;;;;;;;;;5078838;28;5001;-62
2023/09/03 10:09:37;;;;;;;;;;;;;;;;;;5080802;28;4996;-63
2023/09/03 10:12:06;;;;;;;;;;;;;;;;;;5080797;28;5031;-64
2023/09/03 10:14:31;;;;;;;;;;;;;;;;;;5090432;28;5074;-64
2023/09/03 10:16:57;;;;;;;;;;;;;;;;;;5076501;28;3518;-63
2023/09/03 10:19:23;;;;;;;;;;;;;;;;;;5065196;28;4913;-64
2023/09/03 10:21:49;;;;;;;;;;;;;;;;;;5078407;28;5148;-63
2023/09/03 10:24:14;;;;;;;;;;;;;;;;;;5077657;28;4602;-68
2023/09/03 10:26:44;;;;;;;;;;;;;;;;;;5065551;28;5260;-66
2023/09/03 10:29:10;;;;;;;;;;;;;;;;;;5097596;28;3472;-66
2023/09/03 10:31:35;;;;;;;;;;;;;;;;;;5070652;28;5102;-65
2023/09/03 10:34:00;;;;;;;;;;;;;;;;;;5077570;28;5071;-65
2023/09/03 10:36:26;;;;;;;;;;;;;;;;;;5091380;28;5213;-65
2023/09/03 10:38:51;;;;;;;;;;;;;;;;;;5086502;28;4832;-66
2023/09/03 10:41:17;;;;;;;;;;;;;;;;;;5090325;28;5005;-65
2023/09/03 10:43:43;;;;;;;;;;;;;;;;;;5092363;28;1148;-66
2023/09/03 10:46:08;;;;;;;;;;;;;;;;;;5092536;28;5457;-66
2023/09/03 10:48:36;;;;;;;;;;;;;;;;;;5089983;28;5032;-65
2023/09/03 10:51:02;;;;;;;;;;;;;;;;;;5087926;28;5045;-65
2023/09/03 10:53:34;;;;;;;;;;;;;;;;;;5090986;28;4865;-67
2023/09/03 10:56:12;;;;;;;;;;;;;;;;;;5070126;28;3531;-66
2023/09/03 10:58:53;;;;;;;;;;;;;;;;;;5091042;28;4641;-66
2023/09/03 11:01:31;;;;;;;;;;;;;;;;;;5091846;28;5140;-67
2023/09/03 11:03:57;;;;;;;;;;;;;;;;;;5077961;28;4977;-68
2023/09/03 11:06:23;;;;;;;;;;;;;;;;;;5097418;28;4907;-67
2023/09/03 11:09:10;;;;;;;;;;;;;;;;;;5084173;28;5066;-67
2023/09/03 11:11:35;;;;;;;;;;;;;;;;;;5087276;28;4646;-65
2023/09/03 11:14:00;;;;;;;;;;;;;;;;;;5069958;28;3174;-66
2023/09/03 11:16:29;;;;;;;;;;;;;;;;;;5092091;28;4951;-67
2023/09/03 11:18:55;;;;;;;;;;;;;;;;;;5085833;28;5107;-66
2023/09/03 11:21:22;;;;;;;;;;;;;;;;;;5080338;28;5048;-66
2023/09/03 11:24:18;;;;;;;;;;;;;;;;;;5069828;28;5144;-66
2023/09/03 11:26:44;;;;;;;;;;;;;;;;;;5071098;28;4641;-66
2023/09/03 11:29:22;;;;;;;;;;;;;;;;;;5087637;28;3273;-65
2023/09/03 11:31:50;;;;;;;;;;;;;;;;;;5083348;28;5122;-65
2023/09/03 11:34:16;;;;;;;;;;;;;;;;;;5088714;28;5077;-65
2023/09/03 11:36:41;;;;;;;;;;;;;;;;;;5090081;28;5035;-67
2023/09/03 11:39:06;;;;;;;;;;;;;;;;;;5075367;28;4503;-67
2023/09/03 11:41:32;;;;;;;;;;;;;;;;;;5076305;28;5087;-66
2023/09/03 11:43:57;;;;;;;;;;;;;;;;;;5082781;28;3311;-68
2023/09/03 11:46:22;;;;;;;;;;;;;;;;;;5090310;28;5095;-67
2023/09/03 11:48:49;;;;;;;;;;;;;;;;;;5085499;28;5123;-66
2023/09/03 11:51:24;;;;;;;;;;;;;;;;;;5083285;28;5064;-66
2023/09/03 11:53:49;;;;;;;;;;;;;;;;;;5089529;28;4713;-66
2023/09/03 11:56:15;;;;;;;;;;;;;;;;;;5087589;28;4855;-66
2023/09/03 11:58:40;;;;;;;;;;;;;;;;;;5086419;28;3218;-66
2023/09/03 12:01:06;;;;;;;;;;;;;;;;;;5063504;28;4588;-66
2023/09/03 12:03:31;;;;;;;;;;;;;;;;;;5076996;28;5043;-66
2023/09/03 12:05:56;;;;;;;;;;;;;;;;;;5069806;28;4488;-66
2023/09/03 12:08:22;;;;;;;;;;;;;;;;;;5085142;28;5070;-67
2023/09/03 12:10:48;;;;;;;;;;;;;;;;;;5087393;28;3300;-67
2023/09/03 12:13:13;;;;;;;;;;;;;;;;;;5085122;28;5008;-66
2023/09/03 12:15:38;;;;;;;;;;;;;;;;;;5084068;28;5048;-66
2023/09/03 12:18:04;;;;;;;;;;;;;;;;;;5090406;28;4463;-66
2023/09/03 12:20:30;;;;;;;;;;;;;;;;;;5087885;28;6043;-66
2023/09/03 12:22:55;;;;;;;;;;;;;;;;;;5080067;28;3379;-65
2023/09/03 12:25:20;;;;;;;;;;;;;;;;;;5065879;28;5011;-65
2023/09/03 12:27:49;;;;;;;;;;;;;;;;;;5064692;28;5080;-66
2023/09/03 12:30:16;;;;;;;;;;;;;;;;;;5066751;28;5017;-65
2023/09/03 12:32:41;;;;;;;;;;;;;;;;;;5061503;28;5015;-66
2023/09/03 12:35:14;;;;;;;;;;;;;;;;;;5070692;28;3089;-66
2023/09/03 12:37:42;;;;;;;;;;;;;;;;;;5064459;28;4990;-67
2023/09/03 12:40:08;;;;;;;;;;;;;;;;;;5070312;28;5089;-67
2023/09/03 12:42:33;;;;;;;;;;;;;;;;;;5072130;28;5084;-67
2023/09/03 12:44:58;;;;;;;;;;;;;;;;;;5080014;28;5111;-66
2023/09/03 12:47:23;;;;;;;;;;;;;;;;;;5069337;28;4475;-66
2023/09/03 12:49:49;;;;;;;;;;;;;;;;;;5065551;28;3149;-66
2023/09/03 12:52:14;;;;;;;;;;;;;;;;;;5062303;28;5102;-66
2023/09/03 12:54:39;;;;;;;;;;;;;;;;;;5066773;28;4960;-66
2023/09/03 12:57:04;;;;;;;;;;;;;;;;;;5073962;28;4493;-66
2023/09/03 12:59:30;;;;;;;;;;;;;;;;;;5064882;28;4958;-65
2023/09/03 13:01:55;;;;;;;;;;;;;;;;;;5069019;28;1265;-65
2023/09/03 13:04:20;;;;;;;;;;;;;;;;;;5060151;28;5000;-66
2023/09/03 13:06:45;;;;;;;;;;;;;;;;;;5070132;28;4597;-66
2023/09/03 13:09:11;;;;;;;;;;;;;;;;;;5037250;28;4982;-66
2023/09/03 13:11:36;;;;;;;;;;;;;;;;;;5074719;28;5172;-66
2023/09/03 13:14:01;;;;;;;;;;;;;;;;;;5090734;28;1394;-65
2023/09/03 13:16:29;;;;;;;;;;;;;;;;;;5086365;28;4837;-65
2023/09/03 13:18:55;;;;;;;;;;;;;;;;;;5085043;28;4621;-65
2023/09/03 13:21:20;;;;;;;;;;;;;;;;;;5086623;28;5058;-65
2023/09/03 13:23:45;;;;;;;;;;;;;;;;;;5084316;28;5133;-67
2023/09/03 13:26:11;;;;;;;;;;;;;;;;;;5087491;28;5083;-67
2023/09/03 13:28:39;;;;;;;;;;;;;;;;;;5087220;28;2078;-65
2023/09/03 13:31:04;;;;;;;;;;;;;;;;;;5083420;28;4994;-66
2023/09/03 13:33:30;;;;;;;;;;;;;;;;;;5082553;28;4917;-65
2023/09/03 13:35:55;;;;;;;;;;;;;;;;;;5068806;28;5072;-65
2023/09/03 13:38:20;;;;;;;;;;;;;;;;;;5088392;28;4874;-65
2023/09/03 13:40:47;;;;;;;;;;;;;;;;;;5081872;28;1573;-65
2023/09/03 13:43:12;;;;;;;;;;;;;;;;;;5071069;28;4447;-66
2023/09/03 13:45:37;;;;;;;;;;;;;;;;;;5085883;28;4883;-65
2023/09/03 13:48:03;;;;;;;;;;;;;;;;;;5087018;28;4465;-65
2023/09/03 13:50:28;;;;;;;;;;;;;;;;;;5079351;28;5031;-65
2023/09/03 13:52:56;;;;;;;;;;;;;;;;;;5065980;28;1383;-65
2023/09/03 13:55:22;;;;;;;;;;;;;;;;;;5064071;28;5481;-65
2023/09/03 13:57:47;;;;;;;;;;;;;;;;;;5054915;28;5145;-65
2023/09/03 14:00:13;;;;;;;;;;;;;;;;;;5046064;28;5127;-66
2023/09/03 14:02:38;;;;;;;;;;;;;;;;;;5042201;28;4517;-66
2023/09/03 14:05:04;;;;;;;;;;;;;;;;;;5045426;28;3368;-64
2023/09/03 14:07:29;;;;;;;;;;;;;;;;;;5047821;28;5015;-65
2023/09/03 14:09:54;;;;;;;;;;;;;;;;;;5053749;28;5137;-66
2023/09/03 14:12:20;;;;;;;;;;;;;;;;;;5036523;28;5051;-65
2023/09/03 14:14:45;;;;;;;;;;;;;;;;;;5043137;28;4884;-66
2023/09/03 14:17:10;;;;;;;;;;;;;;;;;;5040937;28;4659;-65
2023/09/03 14:19:35;;;;;;;;;;;;;;;;;;5045904;28;3339;-65
2023/09/03 14:22:05;;;;;;;;;;;;;;;;;;5050741;28;4945;-65
2023/09/03 14:24:33;;;;;;;;;;;;;;;;;;5038171;28;5207;-65
2023/09/03 14:26:58;;;;;;;;;;;;;;;;;;5051001;28;5246;-65
2023/09/03 14:29:24;;;;;;;;;;;;;;;;;;5046896;28;4517;-64
2023/09/03 14:31:52;;;;;;;;;;;;;;;;;;5044474;28;4909;-64
2023/09/03 14:34:18;;;;;;;;;;;;;;;;;;5046568;28;4981;-64
2023/09/03 14:36:43;;;;;;;;;;;;;;;;;;5049703;28;5082;-64
2023/09/03 14:39:08;;;;;;;;;;;;;;;;;;5052510;28;4897;-64
2023/09/03 14:41:34;;;;;;;;;;;;;;;;;;5045630;28;5124;-65
2023/09/03 14:44:01;;;;;;;;;;;;;;;;;;5049848;28;3234;-65
2023/09/03 14:46:27;;;;;;;;;;;;;;;;;;5049480;28;4911;-65
2023/09/03 14:48:52;;;;;;;;;;;;;;;;;;5047596;28;5035;-65
2023/09/03 14:51:17;;;;;;;;;;;;;;;;;;5047616;28;5037;-66
2023/09/03 14:53:43;;;;;;;;;;;;;;;;;;5047671;28;5005;-66
2023/09/03 14:56:08;;;;;;;;;;;;;;;;;;5053071;28;3318;-66
2023/09/03 14:58:33;;;;;;;;;;;;;;;;;;5061194;28;4347;-67
2023/09/03 15:00:59;;;;;;;;;;;;;;;;;;5061716;28;4476;-66
2023/09/03 15:03:24;;;;;;;;;;;;;;;;;;5061039;28;4979;-67
2023/09/03 15:05:49;;;;;;;;;;;;;;;;;;5067664;28;4999;-66
2023/09/03 15:08:14;;;;;;;;;;;;;;;;;;5067056;28;4436;-66
2023/09/03 15:10:40;;;;;;;;;;;;;;;;;;5064026;28;3537;-67
2023/09/03 15:13:05;;;;;;;;;;;;;;;;;;5064154;28;4479;-66
2023/09/03 15:15:30;;;;;;;;;;;;;;;;;;5061964;28;4999;-66
2023/09/03 15:17:55;;;;;;;;;;;;;;;;;;5063254;28;5064;-67
2023/09/03 15:20:21;;;;;;;;;;;;;;;;;;5063005;28;4754;-67
2023/09/03 15:22:46;;;;;;;;;;;;;;;;;;5065195;28;3432;-67
2023/09/03 15:25:11;;;;;;;;;;;;;;;;;;5076114;28;4999;-67
2023/09/03 15:27:36;;;;;;;;;;;;;;;;;;5086625;28;5043;-67
2023/09/03 15:30:02;;;;;;;;;;;;;;;;;;5080770;28;5216;-66
2023/09/03 15:32:27;;;;;;;;;;;;;;;;;;5076244;28;5100;-66
2023/09/03 15:34:53;;;;;;;;;;;;;;;;;;5062692;28;3359;-67
2023/09/03 15:37:18;;;;;;;;;;;;;;;;;;5065364;28;4904;-67
2023/09/03 15:39:43;;;;;;;;;;;;;;;;;;5077209;28;5008;-66
2023/09/03 15:42:08;;;;;;;;;;;;;;;;;;5072659;28;5072;-67
2023/09/03 15:44:34;;;;;;;;;;;;;;;;;;5060859;28;5123;-67
2023/09/03 15:46:59;;;;;;;;;;;;;;;;;;5067254;28;3453;-67
2023/09/03 15:49:24;;;;;;;;;;;;;;;;;;5064011;28;4908;-66
2023/09/03 15:51:49;;;;;;;;;;;;;;;;;;5062108;28;5030;-67
2023/09/03 15:54:15;;;;;;;;;;;;;;;;;;5062180;28;4990;-67
2023/09/03 15:56:41;;;;;;;;;;;;;;;;;;5063434;28;5377;-66
2023/09/03 15:59:06;;;;;;;;;;;;;;;;;;5063425;28;3950;-66
2023/09/03 16:01:32;;;;;;;;;;;;;;;;;;5065227;28;5191;-65
2023/09/03 16:03:58;;;;;;;;;;;;;;;;;;5062277;28;5804;-65
2023/09/03 16:06:23;;;;;;;;;;;;;;;;;;5064629;28;4894;-65
2023/09/03 16:08:49;;;;;;;;;;;;;;;;;;5061065;28;4997;-64
2023/09/03 16:11:17;;;;;;;;;;;;;;;;;;5064947;28;4981;-64
2023/09/03 16:13:42;;;;;;;;;;;;;;;;;;5064456;28;3326;-65
2023/09/03 16:16:07;;;;;;;;;;;;;;;;;;5066601;28;5179;-65
2023/09/03 16:18:33;;;;;;;;;;;;;;;;;;5060531;28;5049;-64
2023/09/03 16:20:59;;;;;;;;;;;;;;;;;;5064908;28;5053;-67
2023/09/03 16:23:24;;;;;;;;;;;;;;;;;;5063392;28;5307;-65
2023/09/03 16:25:49;;;;;;;;;;;;;;;;;;5066437;28;3249;-65
2023/09/03 16:28:14;;;;;;;;;;;;;;;;;;5067594;28;5005;-65
2023/09/03 16:30:40;;;;;;;;;;;;;;;;;;5059455;28;5000;-65
2023/09/03 16:33:05;;;;;;;;;;;;;;;;;;5060172;28;5132;-65
2023/09/03 16:35:32;;;;;;;;;;;;;;;;;;5062350;28;4510;-65
2023/09/03 16:37:57;;;;;;;;;;;;;;;;;;5068298;28;3316;-65
2023/09/03 16:40:23;;;;;;;;;;;;;;;;;;5063351;28;5054;-65
2023/09/03 16:42:48;;;;;;;;;;;;;;;;;;5059178;28;4636;-65
2023/09/03 16:45:13;;;;;;;;;;;;;;;;;;5058452;28;4466;-65
2023/09/03 16:47:39;;;;;;;;;;;;;;;;;;5063610;28;5229;-65
2023/09/03 16:50:04;;;;;;;;;;;;;;;;;;5065686;28;3206;-66
2023/09/03 16:52:29;;;;;;;;;;;;;;;;;;5065280;28;5121;-66
2023/09/03 16:54:55;;;;;;;;;;;;;;;;;;5070533;28;5010;-66